createdAt,value
2023-01-23T00:01:42.416Z,0.40
2023-01-23T00:04:14.172Z,0.40
2023-01-23T00:06:42.644Z,0.40
2023-01-23T00:09:11.278Z,0.50
2023-01-23T00:11:40.773Z,0.40
2023-01-23T00:14:08.935Z,0.20
2023-01-23T00:16:37.992Z,0.30
2023-01-23T00:19:06.106Z,0.30
2023-01-23T00:21:35.115Z,0.30
2023-01-23T00:24:03.695Z,0.30
2023-01-23T00:26:33.849Z,0.30
2023-01-23T00:29:05.924Z,0.30
2023-01-23T00:31:36.187Z,0.20
2023-01-23T00:34:06.829Z,0.20
2023-01-23T00:36:37.744Z,0.30
2023-01-23T00:39:13.198Z,0.30
2023-01-23T00:41:42.297Z,0.20
2023-01-23T00:44:11.865Z,0.20
2023-01-23T00:46:40.325Z,0.30
2023-01-23T00:49:11.537Z,0.30
2023-01-23T00:51:39.714Z,0.30
2023-01-23T00:54:07.888Z,0.30
2023-01-23T00:56:36.427Z,0.40
2023-01-23T00:59:05.465Z,0.30
2023-01-23T01:01:35.332Z,0.40
2023-01-23T01:04:03.618Z,0.30
2023-01-23T01:06:32.156Z,0.30
2023-01-23T01:09:00.861Z,0.30
2023-01-23T01:11:29.006Z,0.40
2023-01-23T01:13:57.182Z,0.30
2023-01-23T01:16:26.662Z,0.30
2023-01-23T01:18:56.359Z,0.20
2023-01-23T01:21:24.634Z,0.30
2023-01-23T01:23:55.582Z,0.20
2023-01-23T01:26:26.194Z,0.20
2023-01-23T01:28:55.105Z,0.20
2023-01-23T01:31:24.492Z,0.20
2023-01-23T01:33:52.923Z,0.20
2023-01-23T01:36:25.391Z,0.30
2023-01-23T01:38:54.697Z,0.20
2023-01-23T01:41:22.947Z,0.20
2023-01-23T01:43:53.340Z,0.20
2023-01-23T01:46:23.662Z,0.30
2023-01-23T01:49:08.014Z,0.30
2023-01-23T01:51:42.103Z,0.20
2023-01-23T01:54:17.734Z,0.30
2023-01-23T01:56:50.249Z,0.30
2023-01-23T01:59:20.157Z,0.30
2023-01-23T02:01:54.112Z,0.30
2023-01-23T02:04:23.336Z,0.30
2023-01-23T02:06:55.077Z,0.30
2023-01-23T02:09:27.203Z,0.20
2023-01-23T02:11:55.770Z,0.20
2023-01-23T02:14:25.733Z,0.20
2023-01-23T02:16:56.193Z,0.20
2023-01-23T02:19:41.415Z,0.30
2023-01-23T02:22:20.978Z,0.20
2023-01-23T02:24:57.601Z,0.20
2023-01-23T02:27:27.165Z,0.30
2023-01-23T02:29:56.302Z,0.30
2023-01-23T02:32:25.260Z,0.20
2023-01-23T02:34:56.030Z,0.20
2023-01-23T02:37:28.005Z,0.20
2023-01-23T02:39:56.439Z,0.10
2023-01-23T02:42:26.683Z,0.10
2023-01-23T02:44:56.001Z,0.20
2023-01-23T02:47:25.650Z,0.30
2023-01-23T02:49:53.734Z,0.30
2023-01-23T02:52:23.805Z,0.30
2023-01-23T02:54:52.087Z,0.30
2023-01-23T02:57:20.356Z,0.20
2023-01-23T03:00:03.922Z,0.20
2023-01-23T03:02:33.301Z,0.20
2023-01-23T03:05:01.854Z,0.30
2023-01-23T03:07:30.196Z,0.30
2023-01-23T03:09:59.191Z,0.20
2023-01-23T03:12:27.491Z,0.30
2023-01-23T03:14:58.720Z,0.30
2023-01-23T03:17:28.793Z,0.30
2023-01-23T03:19:57.813Z,0.30
2023-01-23T03:22:26.576Z,0.20
2023-01-23T03:24:56.072Z,0.30
2023-01-23T03:27:24.174Z,0.30
2023-01-23T03:30:09.606Z,0.30
2023-01-23T03:32:40.488Z,0.30
2023-01-23T03:35:13.952Z,0.20
2023-01-23T03:37:42.466Z,0.20
2023-01-23T03:40:34.349Z,0.20
2023-01-23T03:43:04.270Z,0.10
2023-01-23T03:45:32.857Z,0.20
2023-01-23T03:48:02.468Z,0.20
2023-01-23T03:50:30.680Z,0.20
2023-01-23T03:52:59.197Z,0.20
2023-01-23T03:55:27.408Z,0.20
2023-01-23T03:57:55.890Z,0.20
2023-01-23T04:00:24.259Z,0.30
2023-01-23T04:02:52.418Z,0.30
2023-01-23T04:05:22.009Z,0.30
2023-01-23T04:07:50.162Z,0.30
2023-01-23T04:10:19.138Z,0.30
2023-01-23T04:12:47.434Z,0.20
2023-01-23T04:15:16.076Z,0.20
2023-01-23T04:17:44.491Z,0.10
2023-01-23T04:20:13.389Z,0.20
2023-01-23T04:22:43.128Z,0.30
2023-01-23T04:25:12.393Z,0.20
2023-01-23T04:27:40.414Z,0.30
2023-01-23T04:30:10.980Z,0.30
2023-01-23T04:32:40.290Z,0.30
2023-01-23T04:35:09.827Z,0.40
2023-01-23T04:37:38.514Z,0.30
2023-01-23T04:40:11.439Z,0.20
2023-01-23T04:42:41.218Z,0.30
2023-01-23T04:45:11.056Z,0.20
2023-01-23T04:47:39.650Z,0.30
2023-01-23T04:50:08.325Z,0.40
2023-01-23T04:52:36.711Z,0.40
2023-01-23T04:55:05.774Z,0.20
2023-01-23T04:57:36.600Z,0.30
2023-01-23T05:00:06.397Z,0.30
2023-01-23T05:02:35.297Z,0.30
2023-01-23T05:05:07.530Z,0.30
2023-01-23T05:07:35.840Z,0.40
2023-01-23T05:10:04.048Z,0.40
2023-01-23T05:12:32.574Z,0.40
2023-01-23T05:15:08.098Z,0.30
2023-01-23T05:17:36.606Z,0.30
2023-01-23T05:20:08.937Z,0.40
2023-01-23T05:22:38.285Z,0.40
2023-01-23T05:25:08.251Z,0.30
2023-01-23T05:27:36.613Z,0.40
2023-01-23T05:30:10.566Z,0.40
2023-01-23T05:36:04.457Z,0.30
2023-01-23T05:38:33.693Z,0.30
2023-01-23T05:41:01.810Z,0.30
2023-01-23T05:43:30.099Z,0.40
2023-01-23T05:46:02.023Z,0.50
2023-01-23T05:48:31.304Z,0.50
2023-01-23T05:50:59.478Z,0.60
2023-01-23T05:53:28.012Z,0.60
2023-01-23T05:55:56.463Z,0.60
2023-01-23T05:58:24.555Z,0.70
2023-01-23T06:00:52.607Z,0.70
2023-01-23T06:03:22.317Z,0.50
2023-01-23T06:05:50.841Z,0.40
2023-01-23T06:08:18.949Z,0.40
2023-01-23T06:10:47.291Z,0.40
2023-01-23T06:13:15.900Z,0.40
2023-01-23T06:15:44.167Z,0.40
2023-01-23T06:18:12.695Z,0.40
2023-01-23T06:20:42.247Z,0.60
2023-01-23T06:23:10.557Z,0.60
2023-01-23T06:25:40.644Z,0.60
2023-01-23T06:28:09.583Z,0.50
2023-01-23T06:30:38.772Z,0.30
2023-01-23T06:33:07.192Z,0.40
2023-01-23T06:35:35.943Z,0.40
2023-01-23T06:38:07.058Z,0.40
2023-01-23T06:40:37.295Z,0.40
2023-01-23T06:43:06.175Z,0.50
2023-01-23T06:45:34.898Z,0.50
2023-01-23T06:48:03.103Z,0.50
2023-01-23T06:50:31.371Z,0.50
2023-01-23T06:53:00.016Z,0.40
2023-01-23T06:55:30.787Z,0.40
2023-01-23T06:57:59.093Z,0.40
2023-01-23T07:00:28.151Z,0.50
2023-01-23T07:02:59.248Z,0.40
2023-01-23T07:05:27.467Z,0.30
2023-01-23T07:07:55.794Z,0.30
2023-01-23T07:10:24.193Z,0.40
2023-01-23T07:12:53.850Z,0.40
2023-01-23T07:15:23.023Z,0.30
2023-01-23T07:17:51.495Z,0.30
2023-01-23T07:20:21.853Z,0.40
2023-01-23T07:22:51.624Z,0.40
2023-01-23T07:25:19.979Z,0.30
2023-01-23T07:27:48.653Z,0.50
2023-01-23T07:30:20.144Z,0.70
2023-01-23T07:32:48.660Z,0.40
2023-01-23T07:35:17.363Z,0.50
2023-01-23T07:37:47.611Z,0.50
2023-01-23T07:40:16.207Z,0.30
2023-01-23T07:42:46.539Z,0.40
2023-01-23T07:45:15.167Z,0.50
2023-01-23T07:47:45.792Z,0.40
2023-01-23T07:50:14.844Z,0.30
2023-01-23T07:52:44.031Z,0.40
2023-01-23T07:55:12.546Z,0.60
2023-01-23T07:57:40.846Z,0.50
2023-01-23T08:00:10.809Z,0.60
2023-01-23T08:02:39.686Z,0.60
2023-01-23T08:05:11.864Z,0.50
2023-01-23T08:07:40.083Z,0.50
2023-01-23T08:10:09.084Z,0.70
2023-01-23T08:12:37.864Z,0.70
2023-01-23T08:15:07.748Z,0.70
2023-01-23T08:17:36.071Z,0.80
2023-01-23T08:20:04.760Z,0.70
2023-01-23T08:22:37.306Z,0.70
2023-01-23T08:25:06.560Z,0.60
2023-01-23T08:27:34.679Z,0.80
2023-01-23T08:30:02.986Z,0.60
2023-01-23T08:32:31.105Z,0.60
2023-01-23T08:34:59.784Z,0.80
2023-01-23T08:37:28.011Z,0.80
2023-01-23T08:40:01.167Z,0.70
2023-01-23T08:42:30.643Z,0.70
2023-01-23T08:44:58.795Z,0.70
2023-01-23T08:47:27.158Z,0.80
2023-01-23T08:49:55.248Z,0.80
2023-01-23T08:52:23.394Z,0.90
2023-01-23T08:54:51.866Z,0.80
2023-01-23T08:57:22.755Z,0.90
2023-01-23T08:59:51.708Z,0.90
2023-01-23T09:02:21.880Z,0.90
2023-01-23T09:04:50.187Z,0.90
2023-01-23T09:07:18.424Z,0.80
2023-01-23T09:09:47.178Z,0.90
2023-01-23T09:12:16.392Z,0.90
2023-01-23T09:14:46.474Z,0.80
2023-01-23T09:17:14.895Z,0.80
2023-01-23T09:19:43.371Z,0.80
2023-01-23T09:22:11.646Z,0.80
2023-01-23T09:24:40.296Z,0.80
2023-01-23T09:27:09.800Z,0.70
2023-01-23T09:29:38.256Z,0.80
2023-01-23T09:32:07.963Z,0.80
2023-01-23T09:34:36.157Z,0.80
2023-01-23T09:37:04.294Z,0.90
2023-01-23T09:39:32.759Z,1.00
2023-01-23T09:42:08.486Z,1.00
2023-01-23T09:44:43.841Z,1.20
2023-01-23T09:47:17.618Z,1.10
2023-01-23T09:49:50.546Z,1.20
2023-01-23T09:52:22.449Z,1.30
2023-01-23T09:54:55.026Z,1.30
2023-01-23T09:57:26.726Z,1.30
2023-01-23T10:00:02.662Z,1.30
2023-01-23T10:02:32.437Z,1.40
2023-01-23T10:05:02.993Z,1.40
2023-01-23T10:07:47.936Z,1.40
2023-01-23T10:10:37.910Z,1.30
2023-01-23T10:13:11.918Z,1.40
2023-01-23T10:16:06.438Z,1.60
2023-01-23T10:18:46.723Z,1.60
2023-01-23T10:21:23.750Z,1.60
2023-01-23T10:24:02.995Z,1.70
2023-01-23T10:26:34.636Z,1.60
2023-01-23T10:29:11.385Z,1.10
2023-01-23T10:31:43.955Z,1.20
2023-01-23T10:34:19.176Z,1.30
2023-01-23T10:37:01.640Z,1.20
2023-01-23T10:39:38.771Z,1.10
2023-01-23T10:42:12.569Z,1.10
2023-01-23T10:44:40.962Z,1.30
2023-01-23T10:47:19.237Z,1.30
2023-01-23T10:49:48.760Z,1.40
2023-01-23T10:52:33.965Z,1.40
2023-01-23T10:55:04.322Z,1.40
2023-01-23T10:57:45.337Z,1.60
2023-01-23T11:00:23.253Z,1.40
2023-01-23T11:02:51.986Z,1.20
2023-01-23T11:05:52.104Z,1.30
2023-01-23T11:08:27.354Z,1.50
2023-01-23T11:10:59.481Z,1.60
2023-01-23T11:13:30.207Z,1.60
2023-01-23T11:15:59.014Z,1.50
2023-01-23T11:18:42.653Z,1.60
2023-01-23T11:21:24.480Z,1.60
2023-01-23T11:24:09.740Z,1.70
2023-01-23T11:26:39.846Z,1.70
2023-01-23T11:29:24.837Z,1.70
2023-01-23T11:31:59.113Z,1.80
2023-01-23T11:34:32.024Z,1.70
2023-01-23T11:37:11.533Z,1.90
2023-01-23T11:39:48.330Z,2.00
2023-01-23T11:42:19.474Z,1.90
2023-01-23T11:44:51.313Z,1.90
2023-01-23T11:47:43.397Z,1.90
2023-01-23T11:50:43.612Z,1.90
2023-01-23T11:53:41.106Z,2.00
2023-01-23T11:56:37.266Z,1.80
2023-01-23T11:59:32.308Z,1.80
2023-01-23T12:02:21.090Z,1.90
2023-01-23T12:05:08.914Z,1.70
2023-01-23T12:07:48.734Z,1.70
2023-01-23T12:10:24.988Z,1.80
2023-01-23T12:13:06.375Z,1.80
2023-01-23T12:15:47.435Z,1.70
2023-01-23T12:18:32.029Z,1.70
2023-01-23T12:21:06.606Z,1.80
2023-01-23T12:23:58.689Z,2.00
2023-01-23T12:26:32.634Z,2.00
2023-01-23T12:29:26.618Z,1.80
2023-01-23T12:32:28.679Z,1.90
2023-01-23T12:35:09.469Z,2.00
2023-01-23T12:38:00.438Z,1.80
2023-01-23T12:40:34.648Z,1.90
2023-01-23T12:43:10.500Z,1.80
2023-01-23T12:45:42.408Z,1.80
2023-01-23T12:48:15.292Z,1.90
2023-01-23T12:50:48.028Z,2.00
2023-01-23T12:53:20.179Z,1.90
2023-01-23T12:55:58.457Z,2.00
2023-01-23T12:58:31.922Z,2.00
2023-01-23T13:01:12.035Z,1.90
2023-01-23T13:04:02.799Z,1.90
2023-01-23T13:07:03.293Z,2.00
2023-01-23T13:09:41.221Z,1.90
2023-01-23T13:12:22.715Z,1.80
2023-01-23T13:17:48.139Z,1.80
2023-01-23T13:20:47.476Z,1.80
2023-01-23T13:23:26.068Z,1.90
2023-01-23T13:26:29.956Z,2.00
2023-01-23T13:29:02.166Z,2.00
2023-01-23T13:31:45.497Z,1.80
2023-01-23T13:34:39.523Z,1.80
2023-01-23T13:37:51.956Z,1.70
2023-01-23T13:40:26.286Z,1.70
2023-01-23T13:42:54.508Z,1.70
2023-01-23T13:45:28.703Z,1.70
2023-01-23T14:20:39.428Z,1.50
2023-01-23T14:23:33.631Z,1.50
2023-01-23T14:26:02.785Z,1.50
2023-01-23T14:28:31.627Z,1.50
2023-01-23T14:31:02.883Z,1.60
2023-01-23T14:33:41.905Z,1.50
2023-01-23T14:36:16.993Z,1.40
2023-01-23T14:38:50.744Z,1.60
2023-01-23T14:41:22.845Z,1.50
2023-01-23T14:43:59.480Z,1.50
2023-01-23T14:46:40.095Z,1.50
2023-01-23T14:49:10.397Z,1.30
2023-01-23T14:51:38.649Z,1.30
2023-01-23T14:54:22.761Z,1.20
2023-01-23T14:56:52.102Z,1.30
2023-01-23T14:59:27.994Z,1.30
2023-01-23T15:01:56.964Z,1.20
2023-01-23T15:04:27.936Z,1.30
2023-01-23T15:06:58.552Z,1.30
2023-01-23T15:09:31.939Z,1.30
2023-01-23T15:12:06.120Z,1.20
2023-01-23T15:14:38.179Z,1.30
2023-01-23T15:17:08.093Z,1.30
2023-01-23T15:19:38.524Z,1.20
2023-01-23T15:22:09.892Z,1.20
2023-01-23T15:24:39.531Z,1.10
2023-01-23T15:27:24.767Z,1.20
2023-01-23T15:29:54.178Z,1.10
2023-01-23T15:32:26.254Z,1.20
2023-01-23T15:34:57.646Z,1.20
2023-01-23T15:37:27.205Z,1.10
2023-01-23T15:40:02.075Z,1.00
2023-01-23T15:42:32.864Z,1.00
2023-01-23T15:45:02.166Z,1.00
2023-01-23T15:47:31.623Z,1.00
2023-01-23T15:50:01.609Z,0.90
2023-01-23T15:52:31.842Z,1.00
2023-01-23T15:55:04.221Z,0.80
2023-01-23T15:57:32.572Z,0.90
2023-01-23T16:00:01.397Z,0.90
2023-01-23T16:02:32.364Z,0.80
2023-01-23T16:05:02.140Z,0.80
2023-01-23T16:07:34.583Z,0.80
2023-01-23T16:10:17.018Z,0.80
2023-01-23T16:12:46.920Z,0.80
2023-01-23T16:15:16.992Z,0.70
2023-01-23T16:17:46.137Z,0.80
2023-01-23T16:20:15.957Z,0.70
2023-01-23T16:22:44.903Z,0.60
2023-01-23T16:25:20.796Z,0.60
2023-01-23T16:27:50.271Z,0.70
2023-01-23T16:30:19.370Z,0.60
2023-01-23T16:32:48.960Z,0.60
2023-01-23T16:35:20.741Z,0.70
2023-01-23T16:37:51.060Z,0.70
2023-01-23T16:40:25.707Z,0.60
2023-01-23T16:42:55.921Z,0.60
2023-01-23T16:45:25.874Z,0.60
2023-01-23T16:47:54.986Z,0.70
2023-01-23T16:50:28.095Z,0.70
2023-01-23T16:53:02.829Z,0.70
2023-01-23T16:55:36.778Z,0.80
2023-01-23T16:58:07.653Z,0.70
2023-01-23T17:00:37.193Z,0.80
2023-01-23T17:03:09.459Z,0.70
2023-01-23T17:05:38.392Z,0.70
2023-01-23T17:08:18.362Z,0.70
2023-01-23T17:10:51.131Z,0.70
2023-01-23T17:13:20.776Z,0.70
2023-01-23T17:15:50.024Z,0.70
2023-01-23T17:18:24.064Z,0.70
2023-01-23T17:20:54.209Z,0.70
2023-01-23T17:23:23.887Z,0.60
2023-01-23T17:26:00.841Z,0.70
2023-01-23T17:28:30.370Z,0.70
2023-01-23T17:31:01.381Z,0.70
2023-01-23T17:33:33.203Z,0.80
2023-01-23T17:36:04.588Z,0.80
2023-01-23T17:38:34.652Z,0.80
2023-01-23T17:41:06.584Z,0.80
2023-01-23T17:43:35.860Z,0.70
2023-01-23T17:46:06.401Z,0.80
2023-01-23T17:48:40.420Z,0.80
2023-01-23T17:51:18.470Z,0.90
2023-01-23T17:53:50.427Z,0.80
2023-01-23T17:56:21.281Z,0.80
2023-01-23T17:58:49.532Z,0.80
2023-01-23T18:01:23.992Z,0.80
2023-01-23T18:03:53.677Z,0.80
2023-01-23T18:06:22.052Z,0.90
2023-01-23T18:08:50.532Z,0.90
2023-01-23T18:11:22.099Z,1.00
2023-01-23T18:14:09.937Z,1.00
2023-01-23T18:16:42.606Z,0.90
2023-01-23T18:19:17.895Z,0.90
2023-01-23T18:21:48.666Z,0.90
2023-01-23T18:24:24.206Z,0.90
2023-01-23T18:26:59.703Z,1.00
2023-01-23T18:29:44.231Z,0.90
2023-01-23T18:32:42.996Z,0.90
2023-01-23T18:35:25.901Z,1.00
2023-01-23T18:38:04.384Z,1.00
2023-01-23T18:40:40.396Z,1.00
2023-01-23T18:43:34.351Z,0.90
2023-01-23T18:46:03.834Z,1.00
2023-01-23T18:48:32.921Z,0.90
2023-01-23T18:51:14.544Z,1.00
2023-01-23T18:53:53.466Z,0.90
2023-01-23T18:56:31.716Z,0.90
2023-01-23T18:59:15.216Z,1.00
2023-01-23T19:01:53.244Z,1.00
2023-01-23T19:04:30.586Z,0.90
2023-01-23T19:07:00.017Z,0.90
2023-01-23T19:09:32.855Z,0.80
2023-01-23T19:12:24.865Z,0.80
2023-01-23T19:15:16.266Z,0.80
2023-01-23T19:17:49.634Z,1.00
2023-01-23T19:20:27.751Z,1.00
2023-01-23T19:23:04.497Z,1.10
2023-01-23T19:25:32.996Z,1.00
2023-01-23T19:28:02.306Z,1.10
2023-01-23T19:30:33.461Z,1.10
2023-01-23T19:33:02.078Z,1.00
2023-01-23T19:35:30.340Z,1.10
2023-01-23T19:38:00.282Z,1.00
2023-01-23T19:40:28.990Z,1.00
2023-01-23T19:43:12.777Z,0.90
2023-01-23T19:45:47.327Z,1.00
2023-01-23T19:48:15.513Z,1.10
2023-01-23T19:50:44.795Z,1.00
2023-01-23T19:53:14.506Z,1.00
2023-01-23T19:55:42.789Z,1.10
2023-01-23T19:58:13.404Z,1.00
2023-01-23T20:00:43.145Z,1.00
2023-01-23T20:03:14.585Z,1.00
2023-01-23T20:05:43.124Z,1.00
2023-01-23T20:08:11.813Z,1.00
2023-01-23T20:10:40.068Z,1.00
2023-01-23T20:13:08.765Z,1.00
2023-01-23T20:15:37.579Z,1.00
2023-01-23T20:18:07.277Z,1.00
2023-01-23T20:20:38.383Z,1.10
2023-01-23T20:23:06.640Z,1.00
2023-01-23T20:25:35.749Z,1.10
2023-01-23T20:28:03.865Z,1.00
2023-01-23T20:30:33.163Z,1.00
2023-01-23T20:33:05.462Z,1.10
2023-01-23T20:35:38.366Z,1.10
2023-01-23T20:38:06.638Z,1.10
2023-01-23T20:40:34.746Z,1.00
2023-01-23T20:43:03.321Z,1.10
2023-01-23T20:45:31.965Z,1.20
2023-01-23T20:48:00.152Z,1.10
2023-01-23T20:50:28.348Z,1.20
2023-01-23T20:53:16.235Z,1.10
2023-01-23T20:55:44.731Z,1.20
2023-01-23T20:58:30.127Z,1.20
2023-01-23T21:00:59.666Z,1.20
2023-01-23T21:03:28.670Z,1.20
2023-01-23T21:05:57.501Z,1.20
2023-01-23T21:08:27.197Z,1.20
2023-01-23T21:10:58.868Z,1.20
2023-01-23T21:13:27.628Z,1.20
2023-01-23T21:16:01.387Z,1.20
2023-01-23T21:18:29.880Z,1.30
2023-01-23T21:21:04.235Z,1.30
2023-01-23T21:23:37.728Z,1.30
2023-01-23T21:26:06.946Z,1.30
2023-01-23T21:28:38.366Z,1.30
2023-01-23T21:31:10.850Z,1.30
2023-01-23T21:33:40.479Z,1.30
2023-01-23T21:36:09.444Z,1.30
2023-01-23T21:38:38.971Z,1.30
2023-01-23T21:41:07.611Z,1.20
2023-01-23T21:43:36.476Z,1.10
2023-01-23T21:46:05.791Z,1.10
2023-01-23T21:48:35.151Z,1.20
2023-01-23T21:51:07.996Z,1.20
2023-01-23T21:53:39.305Z,1.20
2023-01-23T21:56:08.827Z,1.20
2023-01-23T21:58:37.499Z,1.20
2023-01-23T22:01:24.745Z,1.20
2023-01-23T22:03:56.003Z,1.10
2023-01-23T22:06:24.354Z,1.10
2023-01-23T22:08:54.682Z,1.10
2023-01-23T22:11:25.989Z,1.10
2023-01-23T22:13:58.265Z,1.20
2023-01-23T22:16:46.410Z,1.10
2023-01-23T22:19:16.366Z,1.10
2023-01-23T22:21:46.651Z,1.10
2023-01-23T22:24:17.225Z,1.10
2023-01-23T22:26:45.978Z,1.10
2023-01-23T22:29:15.317Z,1.10
2023-01-23T22:31:43.858Z,1.20
2023-01-23T22:34:14.049Z,1.20
2023-01-23T22:36:42.309Z,1.20
2023-01-23T22:39:13.040Z,1.20
2023-01-23T22:41:42.615Z,1.30
2023-01-23T22:44:12.641Z,1.20
2023-01-23T22:46:44.019Z,1.20
2023-01-23T22:49:12.425Z,1.20
2023-01-23T22:51:42.153Z,1.00
2023-01-23T22:54:10.278Z,1.20
2023-01-23T22:56:39.003Z,1.00
2023-01-23T22:59:08.930Z,1.00
2023-01-23T23:01:44.215Z,1.00
2023-01-23T23:04:12.333Z,1.00
2023-01-23T23:06:40.459Z,1.10
2023-01-23T23:09:10.598Z,1.10
2023-01-23T23:11:40.632Z,1.10
2023-01-23T23:14:11.568Z,1.00
2023-01-23T23:16:41.992Z,1.10
2023-01-23T23:19:11.198Z,1.10
2023-01-23T23:21:43.007Z,1.10
2023-01-23T23:24:14.185Z,1.10
2023-01-23T23:26:42.753Z,1.10
2023-01-23T23:29:12.785Z,1.00
2023-01-23T23:31:41.058Z,1.10
2023-01-23T23:34:09.833Z,1.10
2023-01-23T23:36:38.676Z,1.10
2023-01-23T23:39:06.851Z,1.00
2023-01-23T23:41:35.531Z,1.10
2023-01-23T23:44:04.472Z,1.10
2023-01-23T23:46:34.361Z,1.10
2023-01-23T23:49:02.780Z,1.10
2023-01-23T23:51:31.281Z,1.10
2023-01-23T23:54:00.096Z,1.10
2023-01-23T23:56:32.075Z,1.10
2023-01-23T23:59:00.495Z,1.00
